Time;durP1;ratioP1;P1;durP2;ratioP2;P2;SDS_P1;SDS_P2;PMS_P1;PMS_P2;Temp;Humidity;BMP_temperature;BMP_pressure;BME280_temperature;BME280_humidity;BME280_pressure;Samples;Min_cycle;Max_cycle;Signal;HPM_P1;HPM_P2
2023/08/21 00:01:28;;;;;;;;;;;;;;;23.23;55.33;101167.13;4951135;28;7226;-71
2023/08/21 00:03:53;;;;;;;;;;;;;;;23.22;55.70;101160.16;4961855;28;8261;-70
2023/08/21 00:06:19;;;;;;;;;;;;;;;23.21;55.47;101155.78;4941522;28;6906;-71
2023/08/21 00:08:44;;;;;;;;;;;;;;;23.15;55.43;101154.88;4976800;28;6860;-72
2023/08/21 00:11:10;;;;;;;;;;;;;;;23.12;55.51;101154.84;4954678;28;7837;-71
2023/08/21 00:13:35;;;;;;;;;;;;;;;23.08;55.25;101155.69;4964583;28;6808;-71
2023/08/21 00:16:01;;;;;;;;;;;;;;;23.06;56.21;101165.25;4965579;28;6800;-70
2023/08/21 00:18:26;;;;;;;;;;;;;;;23.04;56.08;101161.75;4960228;28;7129;-71
2023/08/21 00:20:52;;;;;;;;;;;;;;;23.06;55.59;101170.47;4960908;28;6863;-71
2023/08/21 00:23:17;;;;;;;;;;;;;;;23.09;55.87;101177.47;4980674;28;7285;-71
2023/08/21 00:25:46;;;;;;;;;;;;;;;23.08;56.35;101163.53;4942892;28;7029;-72
2023/08/21 00:28:12;;;;;;;;;;;;;;;23.10;56.25;101163.53;4941220;28;7147;-72
2023/08/21 00:30:37;;;;;;;;;;;;;;;23.13;56.42;101158.31;4965700;28;6788;-70
2023/08/21 00:33:03;;;;;;;;;;;;;;;23.16;56.21;101160.97;4971157;28;6956;-72
2023/08/21 00:35:28;;;;;;;;;;;;;;;23.14;55.90;101153.13;4960445;28;7385;-71
2023/08/21 00:37:54;;;;;;;;;;;;;;;23.15;55.83;101162.72;4962805;28;6886;-71
2023/08/21 00:40:19;;;;;;;;;;;;;;;23.11;55.63;101149.59;4975654;28;7071;-71
2023/08/21 00:42:45;;;;;;;;;;;;;;;23.09;55.62;101159.19;4964514;28;6800;-71
2023/08/21 00:45:11;;;;;;;;;;;;;;;23.03;55.86;101160.88;4967702;28;7005;-72
2023/08/21 00:47:37;;;;;;;;;;;;;;;23.00;56.05;101159.97;4946611;28;7436;-71
2023/08/21 00:50:06;;;;;;;;;;;;;;;22.95;56.20;101151.22;4944817;28;6803;-72
2023/08/21 00:52:31;;;;;;;;;;;;;;;22.91;56.29;101145.09;4942428;28;7957;-72
2023/08/21 00:54:57;;;;;;;;;;;;;;;22.87;56.14;101146.78;4975570;28;6796;-71
2023/08/21 00:57:22;;;;;;;;;;;;;;;22.82;55.97;101143.28;4947555;28;6958;-70
2023/08/21 00:59:48;;;;;;;;;;;;;;;22.77;56.12;101150.19;4963828;28;6815;-71
2023/08/21 01:02:14;;;;;;;;;;;;;;;22.71;56.32;101143.16;4956976;28;7036;-72
2023/08/21 01:04:39;;;;;;;;;;;;;;;22.67;56.61;101145.72;4943977;28;6938;-72
2023/08/21 01:07:09;;;;;;;;;;;;;;;22.63;56.59;101147.44;4941000;28;7228;-71
2023/08/21 01:09:58;;;;;;;;;;;;;;;22.59;56.23;101156.97;4963203;28;6880;-70
2023/08/21 01:12:34;;;;;;;;;;;;;;;22.55;56.45;101155.19;4938455;28;7182;-72
2023/08/21 01:15:04;;;;;;;;;;;;;;;22.51;56.83;101150.81;4959030;28;7217;-71
2023/08/21 01:17:30;;;;;;;;;;;;;;;22.47;56.85;101151.59;4962481;28;7327;-71
2023/08/21 01:19:56;;;;;;;;;;;;;;;22.44;57.05;101148.97;4942444;28;6985;-71
2023/08/21 01:22:39;;;;;;;;;;;;;;;22.41;57.36;101160.25;4971685;28;7220;-71
2023/08/21 01:25:06;;;;;;;;;;;;;;;22.40;56.80;101160.22;4940702;28;7252;-71
2023/08/21 01:27:33;;;;;;;;;;;;;;;22.41;57.36;101162.00;4945857;28;7148;-72
2023/08/21 01:30:00;;;;;;;;;;;;;;;22.42;57.25;101163.75;4975463;28;6804;-71
2023/08/21 01:32:35;;;;;;;;;;;;;;;22.44;57.14;101169.84;4956629;28;7295;-71
2023/08/21 01:35:02;;;;;;;;;;;;;;;22.48;57.19;101169.03;4944297;28;6868;-71
2023/08/21 01:37:29;;;;;;;;;;;;;;;22.50;57.55;101164.72;4962213;28;7102;-71
2023/08/21 01:39:58;;;;;;;;;;;;;;;22.52;57.35;101168.25;4962642;28;6844;-71
2023/08/21 01:42:23;;;;;;;;;;;;;;;22.56;57.21;101169.16;4958224;28;6891;-72
2023/08/21 01:44:48;;;;;;;;;;;;;;;22.58;57.41;101160.44;4974646;28;6787;-71
2023/08/21 01:47:14;;;;;;;;;;;;;;;22.61;57.32;101160.50;4946154;28;7237;-71
2023/08/21 01:49:39;;;;;;;;;;;;;;;22.66;56.91;101162.28;4971636;28;6978;-72
2023/08/21 01:52:05;;;;;;;;;;;;;;;22.69;56.84;101163.19;4975844;28;6803;-71
2023/08/21 01:54:30;;;;;;;;;;;;;;;22.70;57.02;101158.84;4960149;28;6796;-71
2023/08/21 01:56:57;;;;;;;;;;;;;;;22.70;57.24;101154.47;4935256;28;7770;-71
2023/08/21 01:59:23;;;;;;;;;;;;;;;22.71;56.85;101151.00;4952330;28;7210;-72
2023/08/21 02:01:49;;;;;;;;;;;;;;;22.71;57.08;101156.22;4939846;28;7277;-73
2023/08/21 02:04:15;;;;;;;;;;;;;;;22.69;56.91;101157.97;4975013;28;7295;-70
2023/08/21 02:06:40;;;;;;;;;;;;;;;22.67;56.90;101143.13;4972554;28;6970;-71
2023/08/21 02:09:06;;;;;;;;;;;;;;;22.66;56.50;101152.72;4978033;28;6780;-71
2023/08/21 02:11:32;;;;;;;;;;;;;;;22.66;56.63;101150.09;4977110;28;7120;-71
2023/08/21 02:13:57;;;;;;;;;;;;;;;22.67;56.60;101150.97;4978758;28;7027;-72
2023/08/21 02:16:23;;;;;;;;;;;;;;;22.66;57.11;101149.22;4977525;28;6855;-73
2023/08/21 02:18:48;;;;;;;;;;;;;;;22.65;56.90;101150.97;4969047;28;6982;-71
2023/08/21 02:21:14;;;;;;;;;;;;;;;22.65;57.13;101153.56;4960121;28;6788;-70
2023/08/21 02:23:39;;;;;;;;;;;;;;;22.66;57.11;101147.50;4965034;28;6963;-74
2023/08/21 02:26:05;;;;;;;;;;;;;;;22.65;57.20;101156.19;4960081;28;6982;-70
2023/08/21 02:28:30;;;;;;;;;;;;;;;22.64;56.95;101149.19;4968693;28;6981;-71
2023/08/21 02:30:56;;;;;;;;;;;;;;;22.67;57.01;101154.47;4955885;28;7007;-71
2023/08/21 02:33:21;;;;;;;;;;;;;;;22.69;56.80;101159.69;4939935;28;6966;-72
2023/08/21 02:35:47;;;;;;;;;;;;;;;22.70;57.09;101158.84;4958384;28;7016;-72
2023/08/21 02:38:12;;;;;;;;;;;;;;;22.69;56.66;101159.69;4955268;28;8750;-70
2023/08/21 02:40:38;;;;;;;;;;;;;;;22.67;56.32;101158.78;4936360;28;8087;-71
2023/08/21 02:43:04;;;;;;;;;;;;;;;22.64;57.06;101150.94;4960637;28;7178;-70
2023/08/21 02:45:30;;;;;;;;;;;;;;;22.60;56.51;101145.69;4962710;28;6994;-72
2023/08/21 02:47:55;;;;;;;;;;;;;;;22.56;56.32;101151.72;4961666;28;7105;-71
2023/08/21 02:50:21;;;;;;;;;;;;;;;22.54;57.12;101145.63;4978030;28;6787;-70
2023/08/21 02:52:46;;;;;;;;;;;;;;;22.51;56.73;101148.22;4959278;28;6841;-70
2023/08/21 02:55:12;;;;;;;;;;;;;;;22.50;57.01;101149.03;4960701;28;6878;-72
2023/08/21 02:57:37;;;;;;;;;;;;;;;22.45;56.74;101143.78;4945975;28;6816;-70
2023/08/21 03:00:04;;;;;;;;;;;;;;;22.42;56.77;101142.84;4961791;28;6792;-72
2023/08/21 03:02:29;;;;;;;;;;;;;;;22.39;57.12;101142.81;4960322;28;6796;-70
2023/08/21 03:04:55;;;;;;;;;;;;;;;22.34;57.30;101138.41;4959358;28;6864;-70
2023/08/21 03:07:20;;;;;;;;;;;;;;;22.29;57.64;101136.63;4961110;28;6927;-70
2023/08/21 03:09:47;;;;;;;;;;;;;;;22.24;57.74;101133.97;4957847;28;6864;-70
2023/08/21 03:12:12;;;;;;;;;;;;;;;22.18;57.57;101141.72;4935690;28;7158;-71
2023/08/21 03:14:38;;;;;;;;;;;;;;;22.12;57.45;101144.25;4977037;28;6836;-70
2023/08/21 03:17:03;;;;;;;;;;;;;;;22.06;57.53;101142.44;4942696;28;6972;-73
2023/08/21 03:19:29;;;;;;;;;;;;;;;22.02;57.84;101148.47;4962143;28;6780;-70
2023/08/21 03:21:54;;;;;;;;;;;;;;;21.96;57.53;101149.28;4970913;28;6958;-70
2023/08/21 03:24:20;;;;;;;;;;;;;;;21.90;57.89;101150.09;4951894;28;6930;-70
2023/08/21 03:26:45;;;;;;;;;;;;;;;21.84;57.79;101155.22;4977192;28;6947;-71
2023/08/21 03:29:11;;;;;;;;;;;;;;;21.78;57.92;101153.41;4974373;28;7052;-71
2023/08/21 03:31:36;;;;;;;;;;;;;;;21.75;58.47;101148.16;4963280;28;6844;-71
2023/08/21 03:34:02;;;;;;;;;;;;;;;21.71;58.39;101148.94;4977249;28;7093;-70
2023/08/21 03:36:33;;;;;;;;;;;;;;;21.68;58.66;101142.81;4947365;28;6958;-73
2023/08/21 03:39:03;;;;;;;;;;;;;;;21.62;58.85;101135.75;4970654;28;6995;-69
2023/08/21 03:41:29;;;;;;;;;;;;;;;21.60;58.86;101145.28;4963478;28;6967;-69
2023/08/21 03:43:55;;;;;;;;;;;;;;;21.56;59.06;101140.88;4943127;28;6776;-70
2023/08/21 03:46:21;;;;;;;;;;;;;;;21.52;58.72;101147.78;4968731;28;6993;-74
2023/08/21 03:48:46;;;;;;;;;;;;;;;21.47;59.19;101150.31;4955382;28;6959;-70
2023/08/21 03:51:12;;;;;;;;;;;;;;;21.42;59.01;101145.91;4958575;28;6788;-70
2023/08/21 03:53:37;;;;;;;;;;;;;;;21.38;59.28;101144.97;4962614;28;6799;-72
2023/08/21 03:56:03;;;;;;;;;;;;;;;21.34;59.57;101148.38;4958816;28;6784;-69
2023/08/21 03:58:29;;;;;;;;;;;;;;;21.31;59.46;101140.50;4976180;28;6863;-71
2023/08/21 04:00:54;;;;;;;;;;;;;;;21.27;59.65;101141.34;4941783;28;6811;-73
2023/08/21 04:03:20;;;;;;;;;;;;;;;21.25;59.54;101143.03;4957367;28;6860;-72
2023/08/21 04:05:46;;;;;;;;;;;;;;;21.22;59.89;101143.88;4945228;28;6780;-72
2023/08/21 04:08:12;;;;;;;;;;;;;;;21.19;59.81;101147.28;4939910;28;6992;-70
2023/08/21 04:10:38;;;;;;;;;;;;;;;21.17;59.82;101154.22;4959327;28;6768;-71
2023/08/21 04:13:04;;;;;;;;;;;;;;;21.13;59.83;101157.59;4967349;28;7011;-72
2023/08/21 04:15:30;;;;;;;;;;;;;;;21.10;59.96;101165.38;4943754;28;6780;-71
2023/08/21 04:17:56;;;;;;;;;;;;;;;21.09;60.04;101168.84;4939864;28;7125;-73
2023/08/21 04:20:22;;;;;;;;;;;;;;;21.06;60.16;101169.66;4949507;28;7219;-72
2023/08/21 04:22:48;;;;;;;;;;;;;;;21.03;60.36;101163.53;4945577;28;6808;-71
2023/08/21 04:25:14;;;;;;;;;;;;;;;21.00;60.53;101173.91;4938307;28;6852;-71
2023/08/21 04:27:39;;;;;;;;;;;;;;;20.99;60.78;101182.56;4981017;28;6776;-71
2023/08/21 04:30:05;;;;;;;;;;;;;;;20.98;60.38;101186.03;4960336;28;7067;-70
2023/08/21 04:32:31;;;;;;;;;;;;;;;20.97;60.78;101194.69;4977151;28;7140;-70
2023/08/21 04:34:56;;;;;;;;;;;;;;;20.95;60.57;101198.13;4960947;28;6788;-71
2023/08/21 04:37:23;;;;;;;;;;;;;;;20.95;60.93;101192.06;4945848;28;7009;-71
2023/08/21 04:39:55;;;;;;;;;;;;;;;20.97;60.84;101197.31;4945231;28;7128;-72
2023/08/21 04:42:21;;;;;;;;;;;;;;;20.96;60.98;101196.41;4960653;28;7142;-70
2023/08/21 04:44:46;;;;;;;;;;;;;;;20.96;61.01;101188.59;4980229;28;6779;-71
2023/08/21 04:47:32;;;;;;;;;;;;;;;20.98;61.15;101191.25;4972815;28;7552;-70
2023/08/21 04:49:57;;;;;;;;;;;;;;;21.00;61.35;101189.53;4946050;28;7118;-69
2023/08/21 04:52:23;;;;;;;;;;;;;;;21.01;61.08;101191.28;4961448;28;6919;-72
2023/08/21 04:54:50;;;;;;;;;;;;;;;21.03;61.32;101195.69;4961224;28;6852;-71
2023/08/21 04:57:17;;;;;;;;;;;;;;;21.06;61.18;101202.69;4943958;28;7067;-70
2023/08/21 04:59:43;;;;;;;;;;;;;;;21.07;61.20;101200.09;4964468;28;6807;-70
2023/08/21 05:02:08;;;;;;;;;;;;;;;21.09;61.33;101198.38;4953715;28;6829;-71
2023/08/21 05:04:36;;;;;;;;;;;;;;;21.12;61.41;101202.78;4977914;28;6982;-72
2023/08/21 05:07:01;;;;;;;;;;;;;;;21.16;61.31;101206.31;4962517;28;7250;-73
2023/08/21 05:09:27;;;;;;;;;;;;;;;21.18;61.27;101210.72;4946153;28;7007;-71
2023/08/21 05:11:53;;;;;;;;;;;;;;;21.21;61.58;101210.75;4973468;28;7118;-72
2023/08/21 05:14:19;;;;;;;;;;;;;;;21.25;61.26;101201.25;4975753;28;6988;-71
2023/08/21 05:16:46;;;;;;;;;;;;;;;21.28;61.44;101205.66;4959685;28;6931;-71
2023/08/21 05:19:11;;;;;;;;;;;;;;;21.34;61.54;101205.72;4944311;28;7326;-72
2023/08/21 05:21:37;;;;;;;;;;;;;;;21.39;61.50;101200.59;4961960;28;7202;-70
2023/08/21 05:24:02;;;;;;;;;;;;;;;21.44;61.49;101201.56;4980257;28;7103;-72
2023/08/21 05:26:28;;;;;;;;;;;;;;;21.50;61.09;101199.06;4958410;28;6788;-71
2023/08/21 05:28:53;;;;;;;;;;;;;;;21.55;61.24;101212.16;4977403;28;6772;-72
2023/08/21 05:31:19;;;;;;;;;;;;;;;21.60;61.01;101207.88;4977635;28;6915;-70
2023/08/21 05:33:45;;;;;;;;;;;;;;;21.64;61.20;101207.94;4971970;28;7040;-69
2023/08/21 05:36:10;;;;;;;;;;;;;;;21.69;61.21;101208.03;4956967;28;6823;-72
2023/08/21 05:38:36;;;;;;;;;;;;;;;21.75;61.09;101212.47;4932809;28;7320;-72
2023/08/21 05:41:01;;;;;;;;;;;;;;;21.80;60.88;101207.31;4962371;28;6780;-69
2023/08/21 05:43:27;;;;;;;;;;;;;;;21.87;61.12;101217.00;4960908;28;6814;-71
2023/08/21 05:45:52;;;;;;;;;;;;;;;21.92;60.84;101212.72;4961473;28;6783;-71
2023/08/21 05:48:18;;;;;;;;;;;;;;;21.99;60.62;101211.94;4963552;28;6998;-72
2023/08/21 05:50:43;;;;;;;;;;;;;;;22.06;60.35;101218.13;4961468;28;6792;-70
2023/08/21 05:53:09;;;;;;;;;;;;;;;22.13;60.49;101216.50;4956127;28;7064;-70
2023/08/21 05:55:36;;;;;;;;;;;;;;;22.19;60.58;101214.81;4974085;28;6792;-70
2023/08/21 05:58:02;;;;;;;;;;;;;;;22.26;60.91;101215.78;4960823;28;7012;-70
2023/08/21 06:00:28;;;;;;;;;;;;;;;22.32;60.05;101209.75;4942766;28;6967;-69
2023/08/21 06:02:53;;;;;;;;;;;;;;;22.40;60.05;101215.06;4978402;28;7118;-70
2023/08/21 06:05:19;;;;;;;;;;;;;;;22.45;59.68;101216.91;4944639;28;6816;-71
2023/08/21 06:07:44;;;;;;;;;;;;;;;22.51;59.84;101221.34;4973330;28;6917;-70
2023/08/21 06:10:12;;;;;;;;;;;;;;;22.57;59.98;101221.41;4977932;28;6775;-71
2023/08/21 06:12:40;;;;;;;;;;;;;;;22.64;59.36;101227.56;4958339;28;6804;-69
2023/08/21 06:15:08;;;;;;;;;;;;;;;22.69;59.47;101227.59;4971858;28;7168;-72
2023/08/21 06:17:34;;;;;;;;;;;;;;;22.74;59.74;101233.78;4943634;28;7277;-71
2023/08/21 06:19:59;;;;;;;;;;;;;;;22.82;59.48;101237.34;4964619;28;8353;-68
2023/08/21 06:22:25;;;;;;;;;;;;;;;22.89;59.44;101238.28;4949786;28;7041;-70
2023/08/21 06:24:50;;;;;;;;;;;;;;;22.98;58.95;101241.00;4952742;28;7259;-69
2023/08/21 06:27:16;;;;;;;;;;;;;;;23.03;58.94;101235.81;4953986;28;6979;-71
2023/08/21 06:29:41;;;;;;;;;;;;;;;23.09;59.20;101230.66;4944409;28;7217;-70
2023/08/21 06:32:07;;;;;;;;;;;;;;;23.20;59.16;101232.47;4956730;28;7055;-71
2023/08/21 06:34:32;;;;;;;;;;;;;;;23.27;58.83;101236.88;4963158;28;6798;-71
2023/08/21 06:36:58;;;;;;;;;;;;;;;23.35;57.94;101237.84;4960400;28;6775;-69
2023/08/21 06:39:23;;;;;;;;;;;;;;;23.42;58.34;101239.66;4944927;28;7160;-70
2023/08/21 06:41:49;;;;;;;;;;;;;;;23.50;58.16;101236.25;4954213;28;7110;-73
2023/08/21 06:44:14;;;;;;;;;;;;;;;23.57;57.62;101243.28;4944599;28;6856;-75
2023/08/21 06:46:40;;;;;;;;;;;;;;;23.63;57.91;101243.31;4974742;28;6972;-73
2023/08/21 06:49:05;;;;;;;;;;;;;;;23.69;57.54;101240.75;4947976;28;7170;-75
2023/08/21 06:51:31;;;;;;;;;;;;;;;23.74;56.54;101240.78;4963630;28;7458;-75
2023/08/21 06:53:56;;;;;;;;;;;;;;;23.81;56.41;101250.41;4959747;28;7124;-76
2023/08/21 06:56:21;;;;;;;;;;;;;;;23.88;56.54;101248.72;4964506;28;6780;-76
2023/08/21 06:58:47;;;;;;;;;;;;;;;23.94;56.05;101253.09;4977521;28;7003;-76
2023/08/21 07:01:12;;;;;;;;;;;;;;;23.99;56.49;101252.25;4944631;28;7097;-77
2023/08/21 07:03:38;;;;;;;;;;;;;;;24.08;55.91;101261.06;4966108;28;6983;-74
2023/08/21 07:06:03;;;;;;;;;;;;;;;24.16;55.93;101262.00;4967634;28;6821;-77
2023/08/21 07:08:29;;;;;;;;;;;;;;;24.23;55.50;101255.91;4953876;28;6792;-77
2023/08/21 07:10:55;;;;;;;;;;;;;;;24.30;55.55;101254.22;4984726;28;6772;-78
2023/08/21 07:13:20;;;;;;;;;;;;;;;24.37;54.84;101252.47;4966439;28;6816;-76
2023/08/21 07:15:46;;;;;;;;;;;;;;;24.43;54.57;101255.09;4967419;28;6784;-78
2023/08/21 07:18:12;;;;;;;;;;;;;;;24.48;54.59;101248.16;4950798;28;6796;-77
2023/08/21 07:20:38;;;;;;;;;;;;;;;24.57;54.78;101254.31;4950285;28;7261;-76
2023/08/21 07:23:03;;;;;;;;;;;;;;;24.62;54.20;101256.06;4980857;28;6788;-77
2023/08/21 07:25:29;;;;;;;;;;;;;;;24.68;54.17;101252.59;4982873;28;6780;-74
2023/08/21 07:27:55;;;;;;;;;;;;;;;24.77;54.27;101259.59;4965756;28;7150;-77
2023/08/21 07:30:22;;;;;;;;;;;;;;;24.87;53.96;101261.41;4950348;28;6808;-75
2023/08/21 07:32:48;;;;;;;;;;;;;;;25.01;53.86;101260.56;4983811;28;7000;-78
2023/08/21 07:35:14;;;;;;;;;;;;;;;25.16;53.54;101251.84;4950568;28;6780;-76
2023/08/21 07:37:41;;;;;;;;;;;;;;;25.37;54.11;101258.84;4949701;28;6800;-78
2023/08/21 07:40:07;;;;;;;;;;;;;;;25.58;54.01;101255.34;4979516;28;6989;-77
2023/08/21 07:42:32;;;;;;;;;;;;;;;25.82;53.93;101250.94;4950601;28;6800;-74
2023/08/21 07:44:58;;;;;;;;;;;;;;;26.03;53.29;101249.16;4966529;28;6970;-73
2023/08/21 07:47:23;;;;;;;;;;;;;;;26.22;52.72;101251.75;4963898;28;6791;-75
2023/08/21 07:49:49;;;;;;;;;;;;;;;26.37;52.47;101249.06;4962937;28;7136;-76
2023/08/21 07:52:15;;;;;;;;;;;;;;;26.48;51.51;101243.75;4979999;28;6800;-76
2023/08/21 07:54:41;;;;;;;;;;;;;;;26.55;51.14;101241.94;4951500;28;7154;-74
2023/08/21 07:57:07;;;;;;;;;;;;;;;26.58;50.98;101247.22;4967133;28;7203;-76
2023/08/21 07:59:32;;;;;;;;;;;;;;;26.59;50.96;101247.19;4966799;28;6797;-77
2023/08/21 08:01:58;;;;;;;;;;;;;;;26.61;50.92;101247.19;4968050;28;7227;-77
2023/08/21 08:04:23;;;;;;;;;;;;;;;26.63;50.94;101255.94;4967579;28;6799;-75
2023/08/21 08:06:49;;;;;;;;;;;;;;;26.67;50.59;101247.16;4980594;28;6942;-73
2023/08/21 08:09:14;;;;;;;;;;;;;;;26.70;49.99;101247.13;4958311;28;7232;-75
2023/08/21 08:11:40;;;;;;;;;;;;;;;26.74;50.29;101248.84;4961659;28;6788;-75
2023/08/21 08:14:05;;;;;;;;;;;;;;;26.80;50.24;101242.69;4965573;28;7078;-75
2023/08/21 08:16:31;;;;;;;;;;;;;;;26.85;50.08;101247.94;4967259;28;7117;-76
2023/08/21 08:18:57;;;;;;;;;;;;;;;26.89;50.25;101241.78;4978416;28;7139;-75
2023/08/21 08:21:23;;;;;;;;;;;;;;;26.92;49.65;101246.16;4982189;28;6986;-76
2023/08/21 08:23:48;;;;;;;;;;;;;;;26.96;49.94;101242.63;4961847;28;6835;-75
2023/08/21 08:26:14;;;;;;;;;;;;;;;26.99;49.67;101242.59;4958644;28;7175;-76
2023/08/21 08:28:39;;;;;;;;;;;;;;;27.01;49.51;101246.09;4958804;28;6832;-74
2023/08/21 08:31:05;;;;;;;;;;;;;;;27.02;49.51;101243.44;4951659;28;6929;-74
2023/08/21 08:33:30;;;;;;;;;;;;;;;27.07;49.22;101255.69;4957463;28;6896;-74
2023/08/21 08:35:56;;;;;;;;;;;;;;;27.11;49.92;101254.78;4962565;28;6784;-74
2023/08/21 08:38:21;;;;;;;;;;;;;;;27.20;49.21;101257.34;4949247;28;7084;-74
2023/08/21 08:40:49;;;;;;;;;;;;;;;27.25;49.48;101249.41;4972620;28;6949;-77
2023/08/21 08:43:15;;;;;;;;;;;;;;;27.30;48.94;101263.41;4977236;28;7261;-75
2023/08/21 08:45:41;;;;;;;;;;;;;;;27.36;48.97;101262.50;4981311;28;6837;-76
2023/08/21 08:48:07;;;;;;;;;;;;;;;27.42;48.94;101267.69;4959006;28;6779;-75
2023/08/21 08:50:34;;;;;;;;;;;;;;;27.49;48.88;101274.66;4935258;28;6896;-76
2023/08/21 08:53:00;;;;;;;;;;;;;;;27.54;48.46;101265.00;4947321;28;7213;-76
2023/08/21 08:55:26;;;;;;;;;;;;;;;27.63;48.31;101268.44;4961688;28;7011;-74
2023/08/21 08:57:53;;;;;;;;;;;;;;;27.71;48.51;101269.19;4946623;28;7305;-74
2023/08/21 09:00:20;;;;;;;;;;;;;;;27.78;48.26;101265.63;4961608;28;6808;-74
2023/08/21 09:02:46;;;;;;;;;;;;;;;27.85;47.70;101275.22;4961442;28;6983;-74
2023/08/21 09:05:12;;;;;;;;;;;;;;;27.93;48.07;101276.91;4960864;28;6846;-71
2023/08/21 09:07:38;;;;;;;;;;;;;;;28.03;47.73;101275.91;4956375;28;6972;-71
2023/08/21 09:10:04;;;;;;;;;;;;;;;28.14;47.86;101274.03;4961761;28;6860;-71
2023/08/21 09:12:33;;;;;;;;;;;;;;;28.27;47.37;101260.72;4954777;28;6970;-71
2023/08/21 09:14:59;;;;;;;;;;;;;;;28.38;47.57;101264.09;4965253;28;6784;-71
2023/08/21 09:17:26;;;;;;;;;;;;;;;28.53;47.65;101262.16;4941996;28;6780;-71
2023/08/21 09:19:51;;;;;;;;;;;;;;;28.75;47.55;101269.75;4945689;28;6892;-72
2023/08/21 09:22:18;;;;;;;;;;;;;;;29.05;47.27;101251.75;4964743;28;6962;-72
2023/08/21 09:25:06;;;;;;;;;;;;;;;29.47;46.61;101259.03;4977615;28;6943;-71
2023/08/21 09:27:38;;;;;;;;;;;;;;;30.02;46.05;101257.09;4949296;28;7210;-71
2023/08/21 09:30:05;;;;;;;;;;;;;;;30.72;45.13;101245.09;4947128;28;6829;-71
2023/08/21 09:32:30;;;;;;;;;;;;;;;31.56;42.93;101243.06;4946141;28;7028;-71
2023/08/21 09:34:56;;;;;;;;;;;;;;;32.37;41.42;101242.63;4963768;28;6776;-71
2023/08/21 09:37:29;;;;;;;;;;;;;;;33.16;39.55;101226.84;4959724;28;7154;-71
2023/08/21 09:40:00;;;;;;;;;;;;;;;33.75;38.89;101232.78;4946195;28;6863;-71
2023/08/21 09:42:26;;;;;;;;;;;;;;;34.39;38.38;101242.88;4963068;28;6829;-72
2023/08/21 09:44:52;;;;;;;;;;;;;;;34.99;37.56;101235.16;4976858;28;7118;-71
2023/08/21 09:47:20;;;;;;;;;;;;;;;35.54;36.19;101238.19;4959909;28;7933;-72
2023/08/21 09:49:45;;;;;;;;;;;;;;;35.75;35.39;101239.06;4976623;28;6800;-71
2023/08/21 09:52:11;;;;;;;;;;;;;;;35.96;35.08;101241.69;4963908;28;6988;-71
2023/08/21 09:54:38;;;;;;;;;;;;;;;35.93;34.58;101245.34;4964305;28;7216;-71
2023/08/21 09:57:04;;;;;;;;;;;;;;;35.93;34.91;101240.00;4962174;28;7282;-71
2023/08/21 09:59:33;;;;;;;;;;;;;;;36.08;33.71;101238.47;4962639;28;6808;-72
2023/08/21 10:02:03;;;;;;;;;;;;;;;36.28;34.11;101237.53;4962176;28;7822;-70
2023/08/21 10:04:30;;;;;;;;;;;;;;;36.69;33.56;101228.47;4978966;28;6815;-71
2023/08/21 10:06:56;;;;;;;;;;;;;;;37.18;32.51;101226.09;4964053;28;6796;-72
2023/08/21 10:09:23;;;;;;;;;;;;;;;37.66;32.25;101220.91;4943926;28;7028;-72
2023/08/21 10:11:49;;;;;;;;;;;;;;;38.11;31.37;101217.66;4947962;28;7167;-72
2023/08/21 10:14:16;;;;;;;;;;;;;;;38.52;30.56;101219.81;4974707;28;7046;-72
2023/08/21 10:16:42;;;;;;;;;;;;;;;38.79;30.27;101227.19;4938298;28;6780;-70
2023/08/21 10:19:08;;;;;;;;;;;;;;;38.98;29.93;101223.44;4964202;28;6946;-71
2023/08/21 10:21:37;;;;;;;;;;;;;;;38.95;28.30;101218.25;4960652;28;6995;-71
2023/08/21 10:24:02;;;;;;;;;;;;;;;38.81;28.21;101219.91;4961283;28;7247;-71
2023/08/21 10:26:28;;;;;;;;;;;;;;;38.58;28.25;101226.63;4976771;28;7177;-71
2023/08/21 10:29:02;;;;;;;;;;;;;;;38.57;28.38;101225.78;4961425;28;6810;-70
2023/08/21 10:31:32;;;;;;;;;;;;;;;38.56;28.42;101215.13;4959483;28;7122;-70
2023/08/21 10:33:59;;;;;;;;;;;;;;;38.54;27.77;101217.94;4962629;28;7286;-72
2023/08/21 10:37:05;;;;;;;;;;;;;;;38.40;27.67;101225.84;4958048;28;7078;-71
2023/08/21 10:39:33;;;;;;;;;;;;;;;38.30;28.07;101226.38;4942151;28;6991;-72
2023/08/21 10:42:15;;;;;;;;;;;;;;;38.35;27.87;101212.72;4940224;28;7021;-70
2023/08/21 10:44:48;;;;;;;;;;;;;;;38.61;27.56;101218.44;4977450;28;6840;-71
2023/08/21 10:47:17;;;;;;;;;;;;;;;38.82;27.40;101218.97;4958165;28;6980;-71
2023/08/21 10:49:53;;;;;;;;;;;;;;;39.04;26.67;101212.38;4976135;28;7013;-72
2023/08/21 10:52:28;;;;;;;;;;;;;;;39.25;26.79;101218.22;4920752;28;7204;-72
2023/08/21 10:54:55;;;;;;;;;;;;;;;39.32;26.07;101221.41;4960476;28;6997;-72
2023/08/21 10:57:25;;;;;;;;;;;;;;;39.24;25.77;101218.34;4957894;28;7050;-72
2023/08/21 10:59:56;;;;;;;;;;;;;;;39.08;25.82;101215.72;4960258;28;7106;-71
2023/08/21 11:02:23;;;;;;;;;;;;;;;39.02;26.29;101225.00;4978517;28;6812;-72
2023/08/21 11:04:50;;;;;;;;;;;;;;;39.32;26.67;101218.72;4963437;28;6804;-72
2023/08/21 11:07:15;;;;;;;;;;;;;;;39.83;26.29;101220.09;4964897;28;7082;-72
2023/08/21 11:09:41;;;;;;;;;;;;;;;40.20;25.36;101219.56;4976186;28;6857;-72
2023/08/21 11:12:12;;;;;;;;;;;;;;;40.25;24.27;101225.50;4945363;28;7441;-71
2023/08/21 11:14:39;;;;;;;;;;;;;;;39.98;24.60;101216.47;4968419;28;7306;-72
2023/08/21 11:17:05;;;;;;;;;;;;;;;39.92;24.79;101221.34;4948007;28;7061;-72
2023/08/21 11:19:34;;;;;;;;;;;;;;;39.88;24.33;101220.69;4959673;28;7237;-70
2023/08/21 11:22:04;;;;;;;;;;;;;;;40.04;24.59;101219.69;4941838;28;6816;-72
2023/08/21 11:24:31;;;;;;;;;;;;;;;40.33;24.25;101231.25;4957274;28;7241;-70
2023/08/21 11:26:57;;;;;;;;;;;;;;;40.10;23.74;101224.69;4946342;28;7255;-71
2023/08/21 11:29:23;;;;;;;;;;;;;;;39.56;24.23;101224.44;4979545;28;6917;-72
2023/08/21 11:31:48;;;;;;;;;;;;;;;39.42;24.70;101233.31;4960293;28;6787;-71
2023/08/21 11:34:18;;;;;;;;;;;;;;;39.28;24.77;101236.81;4962957;28;7005;-72
2023/08/21 11:36:44;;;;;;;;;;;;;;;39.01;24.61;101237.53;4970699;28;6969;-72
2023/08/21 11:39:10;;;;;;;;;;;;;;;38.84;24.97;101235.81;4964660;28;6811;-70
2023/08/21 11:41:56;;;;;;;;;;;;;;;38.66;24.89;101226.19;4961845;28;6775;-72
2023/08/21 11:44:29;;;;;;;;;;;;;;;38.63;24.83;101232.59;4948301;28;7043;-73
2023/08/21 11:46:54;;;;;;;;;;;;;;;38.99;24.74;101227.84;4961255;28;6803;-73
2023/08/21 11:49:22;;;;;;;;;;;;;;;39.32;24.92;101229.47;4957274;28;6784;-73
2023/08/21 11:51:48;;;;;;;;;;;;;;;39.67;24.30;101221.06;4958208;28;6887;-73
2023/08/21 11:54:13;;;;;;;;;;;;;;;40.20;23.82;101223.13;4963433;28;6996;-73
2023/08/21 11:56:41;;;;;;;;;;;;;;;40.46;23.38;101220.56;4948323;28;7206;-72
2023/08/21 11:59:07;;;;;;;;;;;;;;;39.92;23.53;101221.34;4968201;28;6824;-73
2023/08/21 12:01:33;;;;;;;;;;;;;;;39.21;24.39;101221.19;4934375;28;7414;-73
2023/08/21 12:03:59;;;;;;;;;;;;;;;38.48;25.06;101218.25;4951648;28;8633;-73
2023/08/21 12:06:26;;;;;;;;;;;;;;;37.81;25.64;101221.06;4967074;28;6776;-73
2023/08/21 12:08:51;;;;;;;;;;;;;;;37.84;26.03;101213.72;4977489;28;7061;-73
2023/08/21 12:11:17;;;;;;;;;;;;;;;37.76;25.34;101210.59;4963855;28;6791;-73
2023/08/21 12:13:42;;;;;;;;;;;;;;;37.52;25.48;101209.13;4982356;28;6955;-72
2023/08/21 12:16:08;;;;;;;;;;;;;;;37.36;26.21;101213.56;4971339;28;7392;-73
2023/08/21 12:18:33;;;;;;;;;;;;;;;37.51;26.22;101206.53;4977189;28;6804;-74
2023/08/21 12:20:59;;;;;;;;;;;;;;;37.82;26.02;101209.41;4946019;28;6943;-74
2023/08/21 12:23:24;;;;;;;;;;;;;;;37.86;25.92;101205.59;4959732;28;6852;-74
2023/08/21 12:25:50;;;;;;;;;;;;;;;37.84;26.64;101196.81;4959964;28;6790;-73
2023/08/21 12:28:15;;;;;;;;;;;;;;;38.26;26.26;101198.06;4958284;28;6797;-73
2023/08/21 12:30:41;;;;;;;;;;;;;;;38.84;26.19;101197.44;4944632;28;6776;-73
2023/08/21 12:33:07;;;;;;;;;;;;;;;39.35;25.80;101186.38;4950117;28;8449;-73
2023/08/21 12:35:32;;;;;;;;;;;;;;;39.80;24.91;101193.47;4976661;28;6788;-74
2023/08/21 12:37:58;;;;;;;;;;;;;;;40.09;24.85;101196.13;4942023;28;7229;-74
2023/08/21 12:40:24;;;;;;;;;;;;;;;40.45;24.71;101191.97;4950659;28;6809;-72
2023/08/21 12:42:50;;;;;;;;;;;;;;;40.59;23.60;101198.28;4973191;28;8347;-73
2023/08/21 12:45:16;;;;;;;;;;;;;;;40.40;23.66;101194.13;4945285;28;6986;-73